Time;durP1;ratioP1;P1;durP2;ratioP2;P2;SDS_P1;SDS_P2;PMS_P1;PMS_P2;Temp;Humidity;BMP_temperature;BMP_pressure;BME280_temperature;BME280_humidity;BME280_pressure;Samples;Min_cycle;Max_cycle;Signal;HPM_P1;HPM_P2
2021/07/03 00:03:44;;;;;;;0.10;0.10;;;;;;;14.32;89.99;101789.75;10404595;28;20029;-64
2021/07/03 00:08:44;;;;;;;0.10;0.10;;;;;;;14.24;90.61;101785.16;10389846;28;20018;-63
2021/07/03 00:13:45;;;;;;;0.10;0.10;;;;;;;14.17;90.86;101791.34;10376348;28;20026;-62
2021/07/03 00:18:45;;;;;;;0.10;0.10;;;;;;;14.10;91.44;101790.28;10395987;28;20319;-64
2021/07/03 00:23:46;;;;;;;0.10;0.10;;;;;;;14.03;91.27;101782.88;10369970;28;20025;-63
2021/07/03 00:28:46;;;;;;;0.10;0.10;;;;;;;14.00;91.76;101785.06;10388069;28;20021;-62
2021/07/03 00:33:46;;;;;;;0.10;0.10;;;;;;;13.95;91.69;101785.50;10391336;28;20318;-63
2021/07/03 00:38:47;;;;;;;0.10;0.10;;;;;;;13.91;91.78;101781.47;10393514;28;20496;-64
2021/07/03 00:43:47;;;;;;;0.10;0.10;;;;;;;13.84;91.14;101779.56;10380028;28;20068;-63
2021/07/03 00:48:48;;;;;;;0.10;0.10;;;;;;;13.75;91.32;101790.22;10373094;28;20029;-64
2021/07/03 00:53:50;;;;;;;0.10;0.10;;;;;;;13.69;91.12;101788.19;10371254;28;20053;-63
2021/07/03 00:58:50;;;;;;;0.10;0.10;;;;;;;13.60;91.41;101794.47;10393042;28;20014;-64
2021/07/03 01:03:50;;;;;;;0.10;0.10;;;;;;;13.54;92.20;101787.91;10392141;28;20617;-62
2021/07/03 01:08:51;;;;;;;0.10;0.10;;;;;;;13.49;91.99;101784.84;10371605;28;20029;-61
2021/07/03 01:13:51;;;;;;;0.10;0.10;;;;;;;13.42;91.83;101781.13;10372647;28;20033;-62
2021/07/03 01:18:52;;;;;;;0.10;0.10;;;;;;;13.38;92.33;101785.09;10384838;28;20033;-62
2021/07/03 01:23:52;;;;;;;0.13;0.13;;;;;;;13.32;92.44;101785.69;10372761;28;20013;-63
2021/07/03 01:28:53;;;;;;;0.10;0.10;;;;;;;13.28;93.08;101789.69;10402601;28;20018;-62
2021/07/03 01:33:53;;;;;;;0.10;0.10;;;;;;;13.25;93.02;101788.16;10378083;28;20025;-61
2021/07/03 01:38:53;;;;;;;0.10;0.10;;;;;;;13.20;93.20;101781.53;10378097;28;20256;-62
2021/07/03 01:43:54;;;;;;;0.10;0.10;;;;;;;13.22;93.19;101785.75;10407548;28;20032;-62
2021/07/03 01:48:59;;;;;;;0.10;0.10;;;;;;;13.23;93.46;101781.22;10382208;28;20026;-62
2021/07/03 01:54:00;;;;;;;0.10;0.10;;;;;;;13.20;93.45;101776.19;10377542;28;20021;-62
2021/07/03 01:59:00;;;;;;;0.10;0.10;;;;;;;13.19;93.54;101778.03;10366547;28;20017;-61
2021/07/03 02:04:01;;;;;;;0.10;0.10;;;;;;;13.17;93.48;101772.00;10394082;28;20053;-61
2021/07/03 02:09:02;;;;;;;0.10;0.10;;;;;;;13.15;93.74;101771.31;10367514;28;20267;-62
2021/07/03 02:14:02;;;;;;;0.10;0.10;;;;;;;13.17;93.93;101771.16;10392320;28;20025;-64
2021/07/03 02:19:07;;;;;;;0.10;0.10;;;;;;;13.19;94.04;101770.00;10370283;28;20021;-62
2021/07/03 02:24:07;;;;;;;0.10;0.10;;;;;;;13.22;94.09;101768.88;10364172;28;20021;-63
2021/07/03 02:29:08;;;;;;;0.10;0.10;;;;;;;13.19;93.39;101772.69;10365400;28;20026;-64
2021/07/03 02:34:09;;;;;;;0.10;0.10;;;;;;;13.10;93.27;101766.41;10375084;28;20025;-60
2021/07/03 02:39:09;;;;;;;0.10;0.10;;;;;;;13.00;93.03;101763.00;10373984;28;20018;-59
2021/07/03 02:44:09;;;;;;;0.10;0.10;;;;;;;12.89;92.63;101771.22;10377229;28;20105;-61
2021/07/03 02:49:10;;;;;;;0.20;0.20;;;;;;;12.67;91.92;101770.66;10387158;28;20464;-62
2021/07/03 02:54:10;;;;;;;0.10;0.10;;;;;;;12.53;91.90;101767.63;10363859;28;20441;-63
2021/07/03 02:59:10;;;;;;;0.10;0.10;;;;;;;12.45;93.16;101765.72;10364649;28;20018;-60
2021/07/03 03:04:10;;;;;;;0.10;0.10;;;;;;;12.32;92.06;101775.91;10387748;28;20754;-60
2021/07/03 03:09:11;;;;;;;0.20;0.20;;;;;;;12.19;92.85;101776.25;10367526;28;20349;-62
2021/07/03 03:14:11;;;;;;;0.10;0.10;;;;;;;12.23;94.01;101773.13;10385712;28;20135;-62
2021/07/03 03:19:11;;;;;;;0.10;0.10;;;;;;;12.36;94.80;101769.25;10387256;28;20029;-61
2021/07/03 03:24:12;;;;;;;0.10;0.10;;;;;;;12.50;95.16;101768.78;10402030;28;20037;-63
2021/07/03 03:29:12;;;;;;;0.10;0.10;;;;;;;12.72;95.98;101770.22;10404744;28;20464;-60
2021/07/03 03:34:12;;;;;;;0.10;0.10;;;;;;;12.97;96.23;101773.97;10364018;28;20038;-62
2021/07/03 03:39:13;;;;;;;0.10;0.10;;;;;;;13.18;96.17;101775.50;10367030;28;20370;-60
2021/07/03 03:44:13;;;;;;;0.10;0.10;;;;;;;13.40;96.04;101783.09;10391284;28;20341;-62
2021/07/03 03:49:13;;;;;;;0.10;0.10;;;;;;;13.65;95.68;101783.31;10380107;28;20121;-63
2021/07/03 03:54:14;;;;;;;0.10;0.10;;;;;;;13.90;95.46;101785.13;10406131;28;20029;-63
2021/07/03 03:59:15;;;;;;;0.10;0.10;;;;;;;14.15;94.94;101793.34;10410116;28;20136;-64
2021/07/03 04:04:17;;;;;;;0.10;0.10;;;;;;;14.39;94.07;101790.75;10370186;28;20262;-62
2021/07/03 04:09:17;;;;;;;0.10;0.10;;;;;;;14.55;93.51;101797.25;10370845;28;20280;-62
2021/07/03 04:14:18;;;;;;;0.10;0.10;;;;;;;14.80;93.02;101793.63;10371362;28;20026;-62
2021/07/03 04:19:18;;;;;;;0.20;0.20;;;;;;;15.24;92.17;101782.66;10384593;28;20488;-61
2021/07/03 04:24:18;;;;;;;0.10;0.10;;;;;;;16.61;87.53;101781.75;10399628;28;20546;-63
2021/07/03 04:29:19;;;;;;;0.20;0.20;;;;;;;16.93;85.18;101782.63;10373302;28;20079;-63
2021/07/03 04:34:19;;;;;;;0.10;0.10;;;;;;;16.71;84.10;101784.22;10396158;28;20095;-61
2021/07/03 04:39:20;;;;;;;0.10;0.10;;;;;;;16.53;84.55;101787.16;10404441;28;20010;-61
2021/07/03 04:44:20;;;;;;;0.10;0.10;;;;;;;16.52;85.43;101794.41;10373899;28;20432;-63
2021/07/03 04:49:21;;;;;;;0.10;0.10;;;;;;;16.51;85.34;101790.00;10382237;28;20026;-61
2021/07/03 04:54:21;;;;;;;0.10;0.10;;;;;;;16.60;85.50;101792.66;10396628;28;20036;-60
2021/07/03 04:59:21;;;;;;;0.10;0.10;;;;;;;16.53;84.64;101787.16;10401545;28;20017;-61
2021/07/03 05:04:21;;;;;;;0.10;0.10;;;;;;;16.56;85.34;101783.28;10406994;28;20049;-62
2021/07/03 05:09:22;;;;;;;0.10;0.10;;;;;;;16.59;85.40;101791.84;10379709;28;20034;-63
2021/07/03 05:14:22;;;;;;;0.17;0.17;;;;;;;16.72;84.16;101789.41;10376026;28;20023;-64
2021/07/03 05:19:22;;;;;;;0.10;0.10;;;;;;;16.63;83.70;101793.16;10388529;28;20249;-62
2021/07/03 05:24:23;;;;;;;0.10;0.10;;;;;;;16.77;84.32;101778.16;10397094;28;20483;-61
2021/07/03 05:29:23;;;;;;;0.10;0.10;;;;;;;17.05;82.82;101783.06;10367612;28;20014;-62
2021/07/03 05:34:23;;;;;;;0.10;0.10;;;;;;;19.84;76.64;101787.56;10398085;28;20425;-60
2021/07/03 05:39:24;;;;;;;0.10;0.10;;;;;;;20.48;72.15;101781.06;10384963;28;20030;-62
2021/07/03 05:44:24;;;;;;;0.10;0.10;;;;;;;20.09;72.87;101779.00;10386148;28;20029;-64
2021/07/03 05:49:25;;;;;;;0.00;0.00;;;;;;;19.57;73.79;101772.97;10422460;23;20518;-65
2021/07/03 05:54:25;;;;;;;0.10;0.10;;;;;;;19.28;72.86;101783.94;10409478;28;20272;-63
2021/07/03 05:59:25;;;;;;;0.00;0.00;;;;;;;20.16;71.48;101774.47;10409675;28;20027;-64
2021/07/03 06:04:26;;;;;;;0.10;0.10;;;;;;;21.01;68.74;101778.56;10409461;28;20360;-64
2021/07/03 06:09:26;;;;;;;0.10;0.10;;;;;;;23.60;61.13;101763.34;10409138;28;20017;-64
2021/07/03 06:14:26;;;;;;;0.10;0.10;;;;;;;25.57;55.18;101764.84;10442529;28;20411;-65
2021/07/03 06:19:27;;;;;;;0.10;0.10;;;;;;;26.68;50.16;101756.63;10432115;28;20361;-64
2021/07/03 06:24:27;;;;;;;0.10;0.10;;;;;;;27.52;48.26;101755.91;10408740;28;20082;-62
2021/07/03 06:29:27;;;;;;;0.10;0.10;;;;;;;28.30;45.10;101753.16;10374694;28;20018;-63
2021/07/03 06:34:28;;;;;;;0.10;0.10;;;;;;;28.87;45.05;101759.03;10408063;28;20294;-64
2021/07/03 06:39:28;;;;;;;0.10;0.10;;;;;;;28.27;42.83;101751.75;10408891;28;20018;-64
2021/07/03 06:44:29;;;;;;;0.10;0.10;;;;;;;27.37;46.64;101753.72;10407937;28;20021;-63
2021/07/03 06:49:29;;;;;;;0.10;0.10;;;;;;;27.66;46.48;101761.84;10394540;28;20021;-63
2021/07/03 06:54:29;;;;;;;0.10;0.10;;;;;;;27.01;45.96;101760.50;10408326;28;20031;-63
2021/07/03 06:59:30;;;;;;;0.10;0.10;;;;;;;26.75;48.57;101748.25;10390464;28;20022;-63
2021/07/03 07:04:31;;;;;;;0.10;0.10;;;;;;;26.68;44.80;101750.34;10407940;28;20025;-63
2021/07/03 07:09:31;;;;;;;0.10;0.10;;;;;;;24.62;51.17;101752.84;10407986;28;20018;-64
2021/07/03 07:14:31;;;;;;;0.10;0.10;;;;;;;23.07;54.26;101760.22;10407094;28;20108;-63
2021/07/03 07:19:32;;;;;;;0.10;0.10;;;;;;;22.53;57.13;101759.66;10411405;28;20017;-64
2021/07/03 07:24:32;;;;;;;0.10;0.10;;;;;;;22.46;56.12;101756.16;10411033;28;20104;-63
2021/07/03 07:29:33;;;;;;;0.10;0.10;;;;;;;21.84;59.04;101755.66;10444281;28;20017;-64
2021/07/03 07:34:33;;;;;;;0.10;0.10;;;;;;;20.94;61.41;101761.47;10449935;28;20507;-63
2021/07/03 07:39:33;;;;;;;0.10;0.10;;;;;;;20.30;62.72;101762.69;10422503;28;20440;-63
2021/07/03 07:44:34;;;;;;;0.10;0.10;;;;;;;19.88;63.70;101774.50;10438697;28;20029;-63
2021/07/03 07:49:34;;;;;;;0.00;0.00;;;;;;;19.61;65.25;101768.03;10433013;28;20434;-64
2021/07/03 07:54:35;;;;;;;0.10;0.10;;;;;;;19.56;66.64;101773.19;10413806;28;20479;-65
2021/07/03 07:59:35;;;;;;;0.10;0.10;;;;;;;19.65;63.70;101763.94;10418971;28;20373;-65
2021/07/03 08:04:35;;;;;;;0.00;0.00;;;;;;;19.87;62.30;101757.44;10421850;28;20499;-64
2021/07/03 08:09:36;;;;;;;0.10;0.10;;;;;;;20.32;59.20;101760.59;10413310;28;20021;-64
2021/07/03 08:14:36;;;;;;;0.10;0.10;;;;;;;20.21;61.24;101753.03;10416314;28;20064;-64
2021/07/03 08:19:38;;;;;;;0.10;0.10;;;;;;;20.39;62.42;101762.50;10413246;28;20045;-64
2021/07/03 08:24:44;;;;;;;0.10;0.10;;;;;;;20.73;62.68;101765.16;10430320;28;20033;-65
2021/07/03 08:29:44;;;;;;;0.10;0.10;;;;;;;21.13;62.26;101756.28;10413939;28;20025;-64
2021/07/03 08:34:45;;;;;;;0.10;0.10;;;;;;;21.24;56.01;101747.56;10410859;28;20034;-64
2021/07/03 08:39:45;;;;;;;0.10;0.10;;;;;;;21.62;56.37;101750.50;10413584;28;20022;-65
2021/07/03 08:45:01;;;;;;;0.10;0.10;;;;;;;22.41;57.60;101754.06;10416798;28;20199;-62
2021/07/03 08:50:02;;;;;;;0.10;0.10;;;;;;;22.39;54.90;101758.88;10412472;28;20156;-64
2021/07/03 08:55:06;;;;;;;0.10;0.10;;;;;;;22.47;55.92;101763.25;10394075;28;20036;-64
2021/07/03 09:00:07;;;;;;;0.10;0.10;;;;;;;22.77;55.62;101758.06;10411766;28;20025;-64
2021/07/03 09:05:19;;;;;;;0.10;0.10;;;;;;;22.45;53.31;101749.03;10412035;28;20118;-64
2021/07/03 09:10:20;;;;;;;;;;;;;;;22.05;56.10;101746.44;10400126;28;20021;-63
2021/07/03 09:15:23;;;;;;;0.10;0.10;;;;;;;22.32;54.61;101741.81;10414385;28;19908;-63
2021/07/03 09:20:26;;;;;;;;;;;;;;;23.37;54.93;101738.69;10411344;28;20108;-61
2021/07/03 09:25:28;;;;;;;0.10;0.10;;;;;;;24.06;52.42;101729.44;10411368;28;20020;-63
2021/07/03 09:30:28;;;;;;;0.10;0.10;;;;;;;23.74;52.35;101739.63;10410405;28;20505;-63
2021/07/03 09:35:29;;;;;;;0.10;0.10;;;;;;;22.94;51.18;101737.50;10411424;28;20108;-64
2021/07/03 09:40:32;;;;;;;0.10;0.10;;;;;;;22.38;56.18;101732.78;10417818;28;20013;-63
2021/07/03 09:45:33;;;;;;;0.00;0.00;;;;;;;23.20;54.15;101730.22;10445810;28;20291;-63
2021/07/03 09:50:34;;;;;;;0.15;0.10;;;;;;;23.34;51.58;101736.41;10447620;28;20017;-61
2021/07/03 09:55:38;;;;;;;0.10;0.10;;;;;;;23.03;54.24;101733.47;10450292;28;20116;-64
2021/07/03 10:00:38;;;;;;;0.10;0.10;;;;;;;22.83;53.33;101730.91;10450091;28;20403;-64
2021/07/03 10:05:46;;;;;;;0.10;0.10;;;;;;;22.68;54.31;101733.06;10450233;28;20028;-64
2021/07/03 10:10:55;;;;;;;0.10;0.10;;;;;;;22.41;53.63;101720.69;10433403;28;20025;-64
2021/07/03 10:16:04;;;;;;;0.10;0.10;;;;;;;23.16;52.23;101726.31;10391103;28;20388;-65
2021/07/03 10:21:13;;;;;;;0.10;0.10;;;;;;;23.09;53.14;101728.22;10441882;28;20025;-63
2021/07/03 10:26:14;;;;;;;0.10;0.10;;;;;;;22.83;52.57;101730.91;10450547;28;20024;-63
2021/07/03 10:31:14;;;;;;;0.10;0.10;;;;;;;22.49;54.44;101729.41;10449115;28;20016;-64
2021/07/03 10:36:27;;;;;;;0.10;0.10;;;;;;;23.01;52.04;101724.75;10450122;28;20043;-63
2021/07/03 10:41:33;;;;;;;0.00;0.00;;;;;;;22.87;52.59;101714.16;10432740;28;20021;-63
2021/07/03 10:46:35;;;;;;;0.10;0.10;;;;;;;23.54;54.46;101709.03;10448939;28;20025;-63
2021/07/03 10:51:39;;;;;;;0.05;0.05;;;;;;;23.67;52.83;101707.00;10435060;28;20029;-63
2021/07/03 10:56:42;;;;;;;0.03;0.03;;;;;;;23.27;53.43;101693.81;10408303;28;20485;-61
2021/07/03 11:01:44;;;;;;;0.10;0.10;;;;;;;22.96;51.16;101694.69;10414758;28;20021;-64
2021/07/03 11:06:53;;;;;;;0.00;0.00;;;;;;;23.13;54.04;101694.97;10398499;28;20026;-63
2021/07/03 11:11:56;;;;;;;0.10;0.10;;;;;;;23.08;55.80;101692.06;10421746;28;20029;-62
2021/07/03 11:16:58;;;;;;;0.00;0.00;;;;;;;22.55;56.30;101695.97;10415783;28;20025;-62
2021/07/03 11:22:07;;;;;;;0.10;0.10;;;;;;;22.31;54.89;101702.97;10448469;28;20116;-63
2021/07/03 11:27:07;;;;;;;0.10;0.10;;;;;;;22.28;57.61;101706.13;10421681;28;20013;-62
2021/07/03 11:32:08;;;;;;;0.10;0.10;;;;;;;22.40;57.54;101691.84;10444977;28;20476;-63
2021/07/03 11:37:08;;;;;;;0.10;0.10;;;;;;;21.84;58.08;101685.16;10441349;28;20260;-62
2021/07/03 11:42:09;;;;;;;0.10;0.10;;;;;;;21.70;56.95;101687.09;10418532;28;20048;-61
2021/07/03 11:47:09;;;;;;;0.00;0.00;;;;;;;21.95;57.72;101676.38;10442079;28;20025;-60
2021/07/03 11:52:09;;;;;;;0.10;0.10;;;;;;;21.98;57.39;101666.97;10493166;22;20731;-59
2021/07/03 11:57:10;;;;;;;0.10;0.10;;;;;;;22.23;57.41;101676.09;10478032;28;20475;-60
2021/07/03 12:02:10;;;;;;;0.10;0.10;;;;;;;22.23;56.07;101675.25;10468506;28;20437;-60
2021/07/03 12:07:11;;;;;;;0.10;0.10;;;;;;;22.26;55.43;101667.50;10478735;28;20093;-60
2021/07/03 12:12:11;;;;;;;0.10;0.10;;;;;;;22.63;56.38;101665.00;10482741;28;20017;-60
2021/07/03 12:17:17;;;;;;;0.10;0.10;;;;;;;22.56;55.36;101666.91;10483072;28;20035;-60
2021/07/03 12:22:20;;;;;;;0.10;0.10;;;;;;;22.60;57.17;101660.00;10475941;28;20529;-60
2021/07/03 12:27:24;;;;;;;0.10;0.10;;;;;;;22.51;56.29;101651.28;10471351;28;20028;-60
2021/07/03 12:32:24;;;;;;;0.10;0.10;;;;;;;22.51;55.69;101658.59;10467848;28;20024;-60
2021/07/03 12:37:24;;;;;;;0.10;0.10;;;;;;;22.71;57.39;101639.47;10453306;28;20024;-60
2021/07/03 12:42:26;;;;;;;0.10;0.10;;;;;;;22.49;55.50;101637.09;10462799;28;20025;-60
2021/07/03 12:47:27;;;;;;;0.00;0.00;;;;;;;22.36;57.45;101643.44;10468882;28;20017;-59
2021/07/03 12:52:38;;;;;;;0.10;0.10;;;;;;;22.19;58.10;101644.97;10479218;28;20036;-60
2021/07/03 12:57:41;;;;;;;0.10;0.10;;;;;;;22.25;58.23;101640.56;10479038;28;20112;-60
2021/07/03 13:02:41;;;;;;;0.10;0.10;;;;;;;22.21;56.95;101639.34;10473117;28;20029;-59
2021/07/03 13:07:41;;;;;;;0.10;0.10;;;;;;;22.34;57.97;101628.41;10479632;28;20037;-58
2021/07/03 13:12:42;;;;;;;0.00;0.00;;;;;;;22.14;57.96;101623.09;10479208;28;20147;-60
2021/07/03 13:17:42;;;;;;;0.03;0.03;;;;;;;22.07;57.27;101623.09;10475321;28;20100;-60
2021/07/03 13:22:42;;;;;;;0.10;0.10;;;;;;;21.91;57.96;101621.72;10481408;28;20033;-60
2021/07/03 13:27:42;;;;;;;0.07;0.07;;;;;;;21.84;58.85;101622.78;10469096;28;20028;-61
2021/07/03 13:32:44;;;;;;;0.10;0.10;;;;;;;22.01;61.01;101615.81;10469251;28;20494;-61
2021/07/03 13:37:45;;;;;;;0.10;0.10;;;;;;;21.96;61.41;101614.81;10481213;28;20254;-61
2021/07/03 13:42:45;;;;;;;0.00;0.00;;;;;;;21.87;58.83;101611.50;10479555;28;20029;-60
2021/07/03 13:47:45;;;;;;;0.10;0.10;;;;;;;22.08;60.18;101611.22;10453556;28;20029;-61
2021/07/03 13:52:46;;;;;;;0.10;0.10;;;;;;;21.89;58.26;101604.81;10467539;28;20116;-62
2021/07/03 13:57:46;;;;;;;0.10;0.10;;;;;;;22.05;59.68;101599.94;10457347;28;20024;-60
2021/07/03 14:02:46;;;;;;;0.00;0.00;;;;;;;22.15;60.05;101592.19;10467769;28;20502;-62
2021/07/03 14:07:47;;;;;;;0.10;0.10;;;;;;;21.96;58.78;101590.41;10465504;28;20085;-61
2021/07/03 14:12:47;;;;;;;0.10;0.10;;;;;;;21.75;59.22;101603.22;10466979;28;20502;-61
2021/07/03 14:17:48;;;;;;;0.10;0.10;;;;;;;21.61;60.06;101588.88;10482045;28;20031;-60
2021/07/03 14:22:48;;;;;;;0.10;0.10;;;;;;;21.73;60.86;101588.19;10465325;28;20033;-60
2021/07/03 14:27:50;;;;;;;0.10;0.10;;;;;;;21.90;60.56;101586.66;10468413;28;20452;-61
2021/07/03 14:32:50;;;;;;;0.00;0.00;;;;;;;21.88;57.78;101586.06;10468930;28;20451;-61
2021/07/03 14:37:50;;;;;;;0.10;0.10;;;;;;;21.75;59.72;101578.81;10471124;28;20119;-60
2021/07/03 14:42:51;;;;;;;0.10;0.10;;;;;;;21.79;59.79;101574.63;10470346;28;20033;-61
2021/07/03 14:47:52;;;;;;;0.10;0.10;;;;;;;21.77;58.61;101573.19;10485401;28;20050;-60
2021/07/03 14:52:52;;;;;;;0.10;0.10;;;;;;;21.81;59.85;101566.25;10461425;28;20029;-61
2021/07/03 14:57:53;;;;;;;0.10;0.10;;;;;;;22.03;59.29;101567.63;10465483;28;20247;-59
2021/07/03 15:02:53;;;;;;;0.10;0.10;;;;;;;21.80;58.34;101570.03;10473718;28;20024;-60
2021/07/03 15:07:54;;;;;;;0.00;0.00;;;;;;;21.82;59.04;101557.94;10467608;28;20032;-61
2021/07/03 15:12:54;;;;;;;0.00;0.00;;;;;;;21.87;57.10;101554.56;10471652;28;20051;-60
2021/07/03 15:17:55;;;;;;;0.00;0.00;;;;;;;21.85;57.15;101551.25;10462845;28;20271;-61
2021/07/03 15:22:55;;;;;;;0.00;0.00;;;;;;;21.74;57.73;101546.50;10473910;28;20046;-61
2021/07/03 15:27:56;;;;;;;0.00;0.00;;;;;;;21.86;58.43;101544.75;10465670;28;20023;-60
2021/07/03 15:32:56;;;;;;;0.00;0.00;;;;;;;21.67;56.10;101541.94;10475089;28;20091;-62
2021/07/03 15:37:57;;;;;;;0.00;0.00;;;;;;;21.69;55.79;101537.13;10468280;28;20267;-61
2021/07/03 15:42:57;;;;;;;0.00;0.00;;;;;;;21.73;55.22;101539.38;10472550;28;20390;-60
2021/07/03 15:47:58;;;;;;;0.10;0.10;;;;;;;21.66;54.51;101529.41;10471244;28;20290;-60
2021/07/03 15:52:58;;;;;;;0.03;0.03;;;;;;;21.58;54.17;101535.06;10459906;28;20174;-60
2021/07/03 15:57:58;;;;;;;0.00;0.00;;;;;;;21.67;56.03;101524.81;10474402;28;20468;-58
2021/07/03 16:02:59;;;;;;;0.10;0.10;;;;;;;21.54;54.61;101520.28;10481401;28;20040;-60
2021/07/03 16:07:59;;;;;;;0.10;0.10;;;;;;;21.37;54.72;101525.34;10476389;28;20294;-59
2021/07/03 16:13:01;;;;;;;0.10;0.10;;;;;;;21.33;55.01;101510.56;10474208;28;20366;-59
2021/07/03 16:18:01;;;;;;;0.10;0.10;;;;;;;21.40;55.70;101514.09;10466038;28;20029;-60
2021/07/03 16:23:02;;;;;;;0.10;0.10;;;;;;;21.49;55.09;101503.84;10478265;28;20471;-60
2021/07/03 16:28:02;;;;;;;0.10;0.10;;;;;;;21.43;54.42;101500.09;10497853;28;20111;-60
2021/07/03 16:33:03;;;;;;;0.00;0.00;;;;;;;21.43;54.56;101496.56;10496795;28;20082;-60
2021/07/03 16:38:03;;;;;;;0.10;0.10;;;;;;;21.35;54.50;101503.06;10496390;28;20012;-60
2021/07/03 16:43:04;;;;;;;0.10;0.10;;;;;;;21.37;54.41;101500.97;10496156;28;20028;-61
2021/07/03 16:48:04;;;;;;;0.10;0.10;;;;;;;21.29;55.76;101495.75;10496562;28;20108;-59
2021/07/03 16:53:05;;;;;;;0.10;0.10;;;;;;;21.30;56.31;101493.91;10496072;28;20550;-60
2021/07/03 16:58:06;;;;;;;0.10;0.10;;;;;;;21.24;55.82;101501.81;10489057;28;20033;-60
2021/07/03 17:03:06;;;;;;;0.00;0.00;;;;;;;20.99;54.21;101500.84;10480601;28;20052;-60
2021/07/03 17:08:06;;;;;;;0.00;0.00;;;;;;;20.89;56.30;101500.47;10480770;28;20024;-60
2021/07/03 17:13:07;;;;;;;0.10;0.10;;;;;;;20.73;54.66;101502.56;10473124;28;20020;-58
2021/07/03 17:18:07;;;;;;;0.10;0.10;;;;;;;20.64;56.09;101497.56;10457230;28;20021;-60
2021/07/03 17:23:08;;;;;;;0.00;0.00;;;;;;;20.54;56.63;101503.41;10491861;28;20020;-60
2021/07/03 17:28:08;;;;;;;0.10;0.10;;;;;;;20.37;56.83;101505.66;10493634;28;20025;-59
2021/07/03 17:33:08;;;;;;;0.10;0.10;;;;;;;20.29;57.44;101505.88;10494381;28;20028;-60
2021/07/03 17:38:09;;;;;;;0.10;0.10;;;;;;;20.22;56.28;101500.47;10495102;28;20471;-60
2021/07/03 17:43:09;;;;;;;0.10;0.10;;;;;;;20.13;53.60;101491.72;10494105;28;20043;-60
2021/07/03 17:48:09;;;;;;;0.00;0.00;;;;;;;20.06;54.53;101500.84;10494003;28;20123;-60
2021/07/03 17:53:10;;;;;;;0.00;0.00;;;;;;;19.96;54.39;101492.31;10492424;28;20655;-60
2021/07/03 17:58:10;;;;;;;0.10;0.10;;;;;;;19.87;55.89;101492.50;10494433;28;20383;-60
2021/07/03 18:03:10;;;;;;;0.10;0.10;;;;;;;19.75;56.67;101483.31;10493380;28;20259;-60
2021/07/03 18:08:12;;;;;;;0.00;0.00;;;;;;;19.57;58.34;101486.53;10493480;28;20138;-60
2021/07/03 18:13:13;;;;;;;0.10;0.10;;;;;;;19.42;59.79;101475.88;10493514;28;20031;-60
2021/07/03 18:18:13;;;;;;;0.08;0.08;;;;;;;19.34;59.72;101473.34;10493491;28;20031;-60
2021/07/03 18:23:14;;;;;;;0.10;0.10;;;;;;;19.27;59.62;101477.06;10493899;28;20471;-58
2021/07/03 18:28:14;;;;;;;0.10;0.10;;;;;;;19.20;60.65;101475.19;10493129;28;20506;-60
2021/07/03 18:33:15;;;;;;;0.10;0.10;;;;;;;19.09;61.30;101466.81;10493083;28;20032;-60
2021/07/03 18:38:15;;;;;;;0.00;0.00;;;;;;;18.99;62.20;101472.56;10492525;28;20032;-60
2021/07/03 18:43:16;;;;;;;0.10;0.10;;;;;;;18.83;62.91;101468.31;10492308;28;20025;-60
2021/07/03 18:48:16;;;;;;;0.10;0.10;;;;;;;18.71;63.05;101467.19;10492368;28;20123;-60
2021/07/03 18:53:17;;;;;;;0.10;0.10;;;;;;;18.57;64.26;101462.72;10492247;28;20059;-59
2021/07/03 18:58:18;;;;;;;0.10;0.10;;;;;;;18.37;65.38;101457.16;10492450;28;20063;-58
2021/07/03 19:03:18;;;;;;;0.10;0.10;;;;;;;18.16;65.98;101452.63;10491889;28;20198;-60
2021/07/03 19:08:18;;;;;;;0.03;0.03;;;;;;;17.94;66.63;101451.78;10492195;28;20020;-59
2021/07/03 19:13:19;;;;;;;0.10;0.10;;;;;;;17.77;67.71;101451.19;10491730;28;20024;-60
2021/07/03 19:18:20;;;;;;;0.10;0.10;;;;;;;17.53;69.58;101445.13;10492266;28;20506;-59
2021/07/03 19:23:20;;;;;;;0.10;0.10;;;;;;;17.30;70.42;101439.88;10499924;28;20093;-59
2021/07/03 19:28:20;;;;;;;0.10;0.10;;;;;;;17.07;71.51;101440.00;10499978;28;20172;-59
2021/07/03 19:33:21;;;;;;;0.10;0.10;;;;;;;16.91;71.90;101450.97;10500366;28;20305;-59
2021/07/03 19:38:21;;;;;;;0.10;0.10;;;;;;;16.76;72.43;101440.22;10500083;28;20035;-59
2021/07/03 19:43:21;;;;;;;0.10;0.10;;;;;;;16.60;72.99;101451.09;10482071;28;20024;-59
2021/07/03 19:48:22;;;;;;;0.10;0.10;;;;;;;16.38;74.18;101453.66;10499944;28;20037;-59
2021/07/03 19:53:25;;;;;;;0.10;0.10;;;;;;;16.15;74.76;101453.69;10499281;28;20030;-59
2021/07/03 19:58:25;;;;;;;0.10;0.10;;;;;;;16.03;75.52;101460.50;10499548;28;20037;-59
2021/07/03 20:03:25;;;;;;;0.10;0.10;;;;;;;15.86;76.63;101467.03;10498487;28;20025;-58
2021/07/03 20:08:26;;;;;;;0.10;0.10;;;;;;;15.67;77.27;101463.72;10497806;28;20294;-59
2021/07/03 20:13:27;;;;;;;0.10;0.10;;;;;;;15.50;77.95;101470.19;10497754;28;20093;-59
2021/07/03 20:18:27;;;;;;;0.10;0.10;;;;;;;15.32;78.90;101471.28;10480073;28;20025;-59
2021/07/03 20:23:27;;;;;;;0.10;0.10;;;;;;;15.20;79.27;101467.31;10479445;28;20024;-58
2021/07/03 20:28:28;;;;;;;0.10;0.10;;;;;;;15.03;79.57;101471.91;10497500;28;20017;-57
2021/07/03 20:33:28;;;;;;;0.10;0.10;;;;;;;14.79;80.25;101471.97;10495453;28;20032;-59
2021/07/03 20:38:29;;;;;;;0.10;0.10;;;;;;;14.60;80.64;101459.78;10497029;28;20024;-59
2021/07/03 20:43:29;;;;;;;0.10;0.10;;;;;;;14.40;82.00;101460.13;10496621;28;20479;-59
2021/07/03 20:48:30;;;;;;;0.10;0.10;;;;;;;14.27;82.25;101474.00;10496764;28;20037;-58
2021/07/03 20:53:30;;;;;;;0.10;0.10;;;;;;;14.16;82.49;101476.19;10496150;28;20031;-58
2021/07/03 20:58:31;;;;;;;0.10;0.10;;;;;;;14.00;83.70;101471.66;10496508;28;20045;-59
2021/07/03 21:03:31;;;;;;;0.20;0.20;;;;;;;13.81;83.28;101465.59;10495640;28;20263;-59
2021/07/03 21:08:31;;;;;;;0.10;0.10;;;;;;;13.68;83.61;101480.47;10495691;28;20028;-59
2021/07/03 21:13:32;;;;;;;0.10;0.10;;;;;;;13.54;83.71;101468.56;10495528;28;20077;-59
2021/07/03 21:18:32;;;;;;;0.10;0.10;;;;;;;13.37;84.98;101481.03;10477471;28;20498;-57
2021/07/03 21:23:33;;;;;;;0.10;0.10;;;;;;;13.18;86.47;101475.91;10493829;28;20032;-59
2021/07/03 21:28:33;;;;;;;0.10;0.10;;;;;;;12.96;86.65;101463.94;10495195;28;20703;-58
2021/07/03 21:33:34;;;;;;;0.10;0.10;;;;;;;12.83;87.84;101465.22;10494271;28;20024;-59
2021/07/03 21:38:34;;;;;;;0.10;0.10;;;;;;;12.76;86.96;101463.31;10494541;28;20023;-57
2021/07/03 21:43:35;;;;;;;0.10;0.10;;;;;;;12.72;88.93;101462.81;10475490;28;20028;-58
2021/07/03 21:48:35;;;;;;;0.20;0.20;;;;;;;12.68;89.01;101459.59;10476402;28;20395;-58
2021/07/03 21:53:36;;;;;;;0.10;0.10;;;;;;;12.62;88.03;101454.03;10493583;28;20044;-58
2021/07/03 21:58:37;;;;;;;0.10;0.10;;;;;;;12.54;87.55;101454.84;10493890;28;20016;-56
2021/07/03 22:03:38;;;;;;;0.10;0.10;;;;;;;12.49;88.83;101449.13;10493403;28;20020;-59
2021/07/03 22:08:38;;;;;;;0.10;0.10;;;;;;;12.40;89.24;101456.25;10493350;28;20425;-59
2021/07/03 22:13:38;;;;;;;0.10;0.10;;;;;;;12.21;88.31;101453.75;10493005;28;20077;-59
2021/07/03 22:18:39;;;;;;;0.10;0.10;;;;;;;12.08;88.55;101438.13;10475428;28;20099;-58
2021/07/03 22:23:41;;;;;;;0.10;0.10;;;;;;;12.01;88.84;101437.03;10492376;28;20529;-59
2021/07/03 22:28:41;;;;;;;0.10;0.10;;;;;;;11.93;88.45;101437.81;10492887;28;20035;-59
2021/07/03 22:33:43;;;;;;;0.10;0.10;;;;;;;11.91;88.30;101444.31;10492311;28;20390;-59
2021/07/03 22:38:46;;;;;;;0.10;0.10;;;;;;;11.83;87.68;101441.53;10492557;28;20121;-59
2021/07/03 22:43:47;;;;;;;0.10;0.10;;;;;;;11.73;89.03;101434.44;10492630;28;20033;-59
2021/07/03 22:48:47;;;;;;;0.10;0.10;;;;;;;11.66;89.65;101438.69;10492232;28;20032;-59
2021/07/03 22:53:48;;;;;;;0.10;0.10;;;;;;;11.60;90.42;101433.13;10491575;28;20023;-57
2021/07/03 22:58:49;;;;;;;0.10;0.10;;;;;;;11.53;90.82;101438.22;10492322;28;20564;-59
2021/07/03 23:03:49;;;;;;;0.10;0.10;;;;;;;11.50;91.40;101438.53;10473755;28;20031;-58